createdAt,value
2019-02-14T00:01:13.049Z,38.70
2019-02-14T00:03:43.412Z,38.95
2019-02-14T00:06:13.802Z,38.15
2019-02-14T00:08:44.233Z,38.30
2019-02-14T00:11:35.242Z,38.80
2019-02-14T00:14:05.600Z,38.50
2019-02-14T00:16:35.980Z,36.98
2019-02-14T00:19:06.351Z,38.98
2019-02-14T00:21:36.734Z,37.73
2019-02-14T00:24:07.087Z,36.35
2019-02-14T00:26:37.474Z,36.20
2019-02-14T00:29:07.833Z,36.75
2019-02-14T00:31:38.216Z,36.42
2019-02-14T00:34:09.650Z,35.03
2019-02-14T00:36:40.032Z,35.83
2019-02-14T00:39:10.392Z,32.48
2019-02-14T00:41:40.766Z,34.38
2019-02-14T00:44:11.131Z,32.20
2019-02-14T00:46:41.515Z,32.93
2019-02-14T00:49:11.886Z,32.88
2019-02-14T00:51:42.268Z,31.12
2019-02-14T00:54:12.633Z,32.20
2019-02-14T00:56:43.013Z,31.85
2019-02-14T00:59:13.372Z,30.52
2019-02-14T01:01:43.757Z,31.15
2019-02-14T01:04:14.142Z,32.20
2019-02-14T01:06:44.525Z,31.27
2019-02-14T01:09:14.885Z,29.35
2019-02-14T01:11:45.284Z,30.35
2019-02-14T01:14:15.640Z,30.50
2019-02-14T01:16:46.020Z,30.27
2019-02-14T01:19:16.381Z,31.40
2019-02-14T01:21:46.768Z,31.12
2019-02-14T01:24:17.134Z,29.25
2019-02-14T01:26:47.516Z,29.15
2019-02-14T01:29:17.882Z,29.98
2019-02-14T01:31:48.269Z,31.90
2019-02-14T01:34:18.634Z,29.87
2019-02-14T01:36:49.028Z,32.50
2019-02-14T01:39:19.389Z,30.05
2019-02-14T01:41:49.768Z,29.57
2019-02-14T01:44:40.546Z,29.63
2019-02-14T01:47:10.929Z,28.52
2019-02-14T01:49:41.339Z,28.47
2019-02-14T01:52:11.681Z,29.25
2019-02-14T01:54:42.052Z,28.30
2019-02-14T01:57:12.431Z,27.93
2019-02-14T01:59:42.860Z,27.62
2019-02-14T02:02:13.246Z,27.80
2019-02-14T02:04:43.641Z,28.40
2019-02-14T02:07:14.012Z,28.90
2019-02-14T02:09:44.571Z,28.02
2019-02-14T02:12:14.932Z,26.30
2019-02-14T02:14:45.313Z,26.70
2019-02-14T02:17:15.674Z,26.35
2019-02-14T02:19:47.020Z,25.68
2019-02-14T02:22:17.387Z,26.70
2019-02-14T02:24:47.773Z,24.75
2019-02-14T02:27:18.136Z,25.48
2019-02-14T02:29:48.522Z,24.82
2019-02-14T02:32:18.887Z,24.00
2019-02-14T02:34:49.283Z,24.95
2019-02-14T02:37:19.642Z,24.25
2019-02-14T02:39:50.025Z,24.90
2019-02-14T02:42:20.394Z,23.05
2019-02-14T02:44:50.774Z,23.32
2019-02-14T02:47:21.129Z,21.93
2019-02-14T02:49:51.514Z,22.22
2019-02-14T02:52:41.262Z,23.05
2019-02-14T02:55:12.014Z,22.20
2019-02-14T02:57:42.376Z,21.95
2019-02-14T03:00:18.646Z,20.25
2019-02-14T03:02:49.008Z,20.95
2019-02-14T03:05:19.386Z,20.12
2019-02-14T03:07:49.746Z,21.57
2019-02-14T03:10:20.124Z,21.33
2019-02-14T03:12:50.519Z,20.72
2019-02-14T03:15:20.909Z,19.98
2019-02-14T03:17:51.270Z,20.02
2019-02-14T03:20:21.650Z,19.48
2019-02-14T03:22:52.011Z,19.98
2019-02-14T03:25:22.391Z,19.67
2019-02-14T03:27:52.759Z,18.73
2019-02-14T03:30:23.149Z,20.32
2019-02-14T03:32:53.511Z,18.60
2019-02-14T03:35:23.899Z,18.67
2019-02-14T03:37:54.256Z,20.45
2019-02-14T03:40:24.642Z,18.73
2019-02-14T03:42:54.998Z,19.27
2019-02-14T03:45:25.377Z,19.12
2019-02-14T03:47:55.730Z,18.87
2019-02-14T03:50:26.103Z,18.87
2019-02-14T03:52:56.525Z,18.90
2019-02-14T03:55:26.971Z,18.05
2019-02-14T03:57:57.328Z,17.77
2019-02-14T04:00:27.710Z,18.30
2019-02-14T04:02:58.069Z,17.70
2019-02-14T04:05:28.454Z,20.35
2019-02-14T04:07:58.816Z,19.20
2019-02-14T04:10:29.197Z,18.40
2019-02-14T04:12:59.570Z,18.45
2019-02-14T04:15:29.950Z,19.20
2019-02-14T04:18:00.309Z,19.32
2019-02-14T04:20:30.697Z,19.65
2019-02-14T04:23:14.586Z,20.70
2019-02-14T04:25:44.959Z,19.80
2019-02-14T04:28:15.321Z,20.95
2019-02-14T04:30:45.698Z,19.52
2019-02-14T04:33:16.235Z,19.50
2019-02-14T04:35:46.786Z,20.15
2019-02-14T04:38:17.194Z,20.12
2019-02-14T04:40:47.588Z,17.98
2019-02-14T04:43:18.040Z,20.25
2019-02-14T04:45:48.420Z,19.07
2019-02-14T04:48:18.779Z,19.82
2019-02-14T04:50:49.156Z,19.62
2019-02-14T04:53:19.515Z,19.65
2019-02-14T04:55:49.902Z,19.80
2019-02-14T04:58:20.265Z,18.32
2019-02-14T05:00:50.652Z,18.65
2019-02-14T05:03:21.039Z,19.30
2019-02-14T05:05:51.395Z,18.98
2019-02-14T05:08:21.814Z,19.12
2019-02-14T05:10:52.172Z,18.07
2019-02-14T05:13:22.551Z,19.70
2019-02-14T05:15:52.918Z,18.70
2019-02-14T05:18:23.296Z,19.20
2019-02-14T05:20:53.658Z,19.42
2019-02-14T05:23:24.038Z,19.65
2019-02-14T05:25:54.403Z,19.40
2019-02-14T05:28:24.786Z,19.32
2019-02-14T05:30:55.146Z,19.42
2019-02-14T05:33:25.523Z,18.62
2019-02-14T05:35:55.885Z,19.32
2019-02-14T05:38:26.268Z,19.35
2019-02-14T05:40:56.609Z,19.07
2019-02-14T05:43:26.996Z,19.35
2019-02-14T05:45:57.359Z,18.80
2019-02-14T05:48:27.746Z,19.02
2019-02-14T05:50:58.099Z,20.23
2019-02-14T05:53:28.481Z,19.82
2019-02-14T05:55:58.847Z,18.95
2019-02-14T05:58:29.232Z,20.25
2019-02-14T06:00:59.623Z,22.52
2019-02-14T06:03:30.000Z,18.95
2019-02-14T06:06:00.357Z,19.23
2019-02-14T06:08:30.734Z,18.23
2019-02-14T06:11:01.093Z,19.23
2019-02-14T06:13:31.484Z,19.25
2019-02-14T06:16:01.849Z,18.12
2019-02-14T06:18:32.222Z,19.57
2019-02-14T06:21:02.586Z,18.67
2019-02-14T06:23:32.969Z,18.25
2019-02-14T06:26:03.324Z,19.45
2019-02-14T06:28:33.697Z,18.52
2019-02-14T06:31:04.061Z,19.00
2019-02-14T06:33:34.438Z,20.08
2019-02-14T06:36:04.789Z,19.17
2019-02-14T06:38:35.168Z,18.37
2019-02-14T06:41:05.613Z,19.75
2019-02-14T06:43:35.993Z,19.15
2019-02-14T06:46:06.355Z,20.15
2019-02-14T06:48:36.747Z,19.62
2019-02-14T06:51:07.106Z,19.52
2019-02-14T06:53:37.484Z,19.55
2019-02-14T06:56:07.846Z,19.98
2019-02-14T06:58:38.227Z,21.12
2019-02-14T07:01:08.586Z,19.85
2019-02-14T07:03:38.962Z,20.17
2019-02-14T07:06:09.718Z,19.95
2019-02-14T07:08:40.093Z,20.62
2019-02-14T07:11:10.600Z,21.55
2019-02-14T07:13:40.973Z,20.08
2019-02-14T07:16:12.969Z,21.30
2019-02-14T07:18:43.331Z,20.95
2019-02-14T07:21:13.787Z,21.60
2019-02-14T07:23:44.155Z,20.90
2019-02-14T07:26:14.705Z,21.00
2019-02-14T07:28:45.065Z,21.57
2019-02-14T07:31:15.756Z,20.60
2019-02-14T07:33:46.131Z,20.72
2019-02-14T07:36:19.478Z,20.72
2019-02-14T07:38:49.840Z,21.30
2019-02-14T07:41:20.273Z,21.20
2019-02-14T07:43:50.717Z,21.52
2019-02-14T07:46:22.923Z,21.62
2019-02-14T07:48:53.277Z,21.60
2019-02-14T07:51:23.725Z,20.00
2019-02-14T07:53:54.141Z,21.17
2019-02-14T07:56:24.635Z,20.92
2019-02-14T07:58:54.992Z,20.43
2019-02-14T08:01:25.373Z,20.55
2019-02-14T08:03:55.748Z,22.45
2019-02-14T08:06:26.168Z,22.60
2019-02-14T08:08:56.532Z,21.77
2019-02-14T08:11:29.979Z,21.30
2019-02-14T08:14:00.422Z,23.27
2019-02-14T08:16:30.790Z,22.80
2019-02-14T08:19:13.765Z,21.65
2019-02-14T08:21:44.130Z,22.30
2019-02-14T08:24:14.519Z,21.82
2019-02-14T08:26:44.880Z,22.52
2019-02-14T08:29:15.266Z,22.32
2019-02-14T08:31:45.646Z,21.93
2019-02-14T08:34:16.019Z,21.73
2019-02-14T08:36:46.385Z,21.85
2019-02-14T08:39:16.775Z,20.52
2019-02-14T08:41:47.205Z,20.95
2019-02-14T08:44:17.583Z,21.45
2019-02-14T08:46:48.022Z,20.90
2019-02-14T08:49:18.410Z,22.52
2019-02-14T08:51:48.774Z,21.35
2019-02-14T08:54:19.162Z,21.87
2019-02-14T08:56:49.526Z,23.12
2019-02-14T08:59:19.914Z,21.65
2019-02-14T09:01:50.273Z,21.10
2019-02-14T09:04:20.651Z,21.10
2019-02-14T09:06:51.015Z,21.55
2019-02-14T09:09:21.385Z,20.50
2019-02-14T09:11:51.744Z,21.80
2019-02-14T09:14:22.139Z,20.30
2019-02-14T09:16:52.521Z,19.80
2019-02-14T09:19:22.916Z,19.12
2019-02-14T09:21:53.299Z,18.50
2019-02-14T09:24:23.682Z,19.12
2019-02-14T09:26:54.095Z,17.73
2019-02-14T09:29:24.478Z,18.32
2019-02-14T09:31:54.859Z,17.87
2019-02-14T09:34:25.252Z,17.45
2019-02-14T09:36:55.621Z,17.60
2019-02-14T09:39:26.014Z,17.80
2019-02-14T09:41:56.386Z,16.55
2019-02-14T09:44:26.783Z,15.60
2019-02-14T09:46:57.161Z,16.02
2019-02-14T09:49:27.549Z,15.90
2019-02-14T09:51:57.946Z,15.55
2019-02-14T09:54:28.341Z,15.70
2019-02-14T09:56:58.710Z,15.93
2019-02-14T09:59:29.103Z,16.77
2019-02-14T10:01:59.505Z,16.62
2019-02-14T10:04:29.860Z,15.78
2019-02-14T10:07:00.323Z,15.95
2019-02-14T10:09:30.690Z,17.15
2019-02-14T10:12:01.078Z,15.10
2019-02-14T10:14:31.447Z,15.08
2019-02-14T10:17:01.843Z,16.30
2019-02-14T10:19:33.195Z,17.05
2019-02-14T10:22:03.576Z,16.70
2019-02-14T10:24:33.941Z,17.23
2019-02-14T10:27:04.328Z,17.87
2019-02-14T10:29:34.727Z,16.65
2019-02-14T10:32:05.119Z,16.85
2019-02-14T10:34:35.476Z,15.58
2019-02-14T10:37:05.872Z,16.05
2019-02-14T10:39:36.237Z,14.95
2019-02-14T10:42:06.635Z,13.43
2019-02-14T10:44:37.012Z,14.13
2019-02-14T10:47:07.474Z,13.75
2019-02-14T10:49:37.843Z,14.63
2019-02-14T10:52:08.228Z,14.90
2019-02-14T10:54:38.598Z,14.15
2019-02-14T10:57:08.991Z,14.38
2019-02-14T10:59:39.363Z,13.18
2019-02-14T11:02:10.288Z,12.98
2019-02-14T11:04:40.664Z,13.28
2019-02-14T11:07:11.050Z,14.20
2019-02-14T11:09:41.417Z,13.78
2019-02-14T11:12:11.812Z,14.25
2019-02-14T11:14:42.184Z,15.08
2019-02-14T11:17:12.567Z,12.58
2019-02-14T11:19:42.943Z,12.75
2019-02-14T11:22:13.340Z,10.72
2019-02-14T11:24:43.711Z,9.83
2019-02-14T11:27:14.092Z,9.85
2019-02-14T11:29:44.693Z,10.53
2019-02-14T11:32:15.088Z,11.10
2019-02-14T11:34:45.454Z,11.18
2019-02-14T11:37:15.846Z,11.73
2019-02-14T11:39:46.226Z,12.60
2019-02-14T11:42:16.610Z,13.90
2019-02-14T11:44:46.987Z,13.18
2019-02-14T11:47:17.375Z,15.68
2019-02-14T11:49:47.771Z,17.30
2019-02-14T11:52:18.149Z,16.82
2019-02-14T11:54:48.546Z,18.60
2019-02-14T11:57:18.912Z,17.15
2019-02-14T11:59:49.311Z,17.73
2019-02-14T12:02:19.672Z,18.17
2019-02-14T12:04:50.069Z,18.75
2019-02-14T12:07:20.442Z,19.55
2019-02-14T12:09:50.828Z,18.98
2019-02-14T12:12:22.918Z,20.08
2019-02-14T12:14:53.296Z,18.02
2019-02-14T12:17:23.729Z,19.75
2019-02-14T12:19:54.113Z,19.07
2019-02-14T12:22:24.480Z,17.50
2019-02-14T12:24:54.875Z,17.70
2019-02-14T12:27:25.248Z,17.42
2019-02-14T12:29:55.643Z,17.73
2019-02-14T12:32:26.072Z,17.73
2019-02-14T12:34:56.464Z,18.35
2019-02-14T12:37:26.847Z,17.20
2019-02-14T12:39:58.181Z,16.20
2019-02-14T12:42:28.571Z,15.53
2019-02-14T12:44:58.948Z,16.93
2019-02-14T12:47:29.351Z,16.82
2019-02-14T12:49:59.728Z,18.10
2019-02-14T12:52:30.168Z,15.78
2019-02-14T12:55:00.543Z,15.98
2019-02-14T12:57:30.933Z,15.30
2019-02-14T13:00:01.298Z,15.50
2019-02-14T13:02:31.694Z,15.05
2019-02-14T13:05:02.069Z,15.83
2019-02-14T13:07:32.574Z,15.40
2019-02-14T13:10:03.109Z,15.83
2019-02-14T13:12:33.498Z,14.85
2019-02-14T13:15:05.902Z,15.60
2019-02-14T13:17:36.284Z,15.08
2019-02-14T13:20:08.274Z,15.25
2019-02-14T13:22:38.666Z,15.05
2019-02-14T13:25:11.828Z,15.18
2019-02-14T13:27:42.217Z,14.87
2019-02-14T13:30:22.752Z,15.30
2019-02-14T13:32:53.155Z,16.85
2019-02-14T13:35:23.555Z,16.50
2019-02-14T13:37:53.922Z,16.05
2019-02-14T13:40:24.301Z,16.50
2019-02-14T13:42:54.692Z,16.23
2019-02-14T13:45:25.539Z,16.45
2019-02-14T13:47:55.902Z,15.58
2019-02-14T13:50:26.271Z,16.02
2019-02-14T13:52:56.669Z,14.60
2019-02-14T13:55:28.387Z,14.23
2019-02-14T13:57:58.896Z,13.65
2019-02-14T14:00:30.400Z,14.78
2019-02-14T14:03:00.794Z,14.15
2019-02-14T14:05:50.500Z,14.45
2019-02-14T14:08:20.894Z,13.03
2019-02-14T14:10:51.262Z,13.55
2019-02-14T14:13:34.343Z,14.30
2019-02-14T14:16:04.742Z,13.65
2019-02-14T14:18:35.115Z,13.45
2019-02-14T14:21:05.518Z,13.72
2019-02-14T14:23:37.744Z,13.83
2019-02-14T14:26:08.141Z,13.58
2019-02-14T14:28:41.822Z,12.73
2019-02-14T14:31:12.258Z,13.10
2019-02-14T14:33:42.748Z,12.35
2019-02-14T14:36:13.103Z,13.00
2019-02-14T14:38:43.638Z,12.70
2019-02-14T14:41:14.088Z,12.30
2019-02-14T14:43:50.424Z,12.50
2019-02-14T14:46:22.527Z,12.88
2019-02-14T14:48:55.651Z,13.15
2019-02-14T14:51:26.043Z,11.78
2019-02-14T14:53:56.454Z,12.95
2019-02-14T14:56:26.844Z,12.85
2019-02-14T14:58:57.296Z,12.00
2019-02-14T15:01:27.673Z,11.95
2019-02-14T15:03:58.062Z,12.60
2019-02-14T15:06:28.527Z,12.90
2019-02-14T15:08:58.924Z,12.20
2019-02-14T15:11:29.371Z,12.03
2019-02-14T15:13:59.768Z,12.33
2019-02-14T15:16:30.133Z,13.20
2019-02-14T15:19:00.546Z,12.53
2019-02-14T15:21:30.921Z,13.28
2019-02-14T15:24:01.341Z,13.80
2019-02-14T15:26:32.672Z,13.95
2019-02-14T15:29:03.087Z,13.22
2019-02-14T15:31:33.444Z,12.60
2019-02-14T15:34:03.889Z,12.60
2019-02-14T15:36:34.232Z,12.33
2019-02-14T15:39:05.922Z,12.43
2019-02-14T15:41:36.278Z,12.10
2019-02-14T15:44:06.659Z,12.78
2019-02-14T15:46:37.020Z,12.07
2019-02-14T15:49:07.416Z,13.38
2019-02-14T15:51:39.489Z,14.58
2019-02-14T15:54:11.752Z,12.70
2019-02-14T15:56:42.042Z,13.95
2019-02-14T15:59:12.449Z,12.90
2019-02-14T16:01:44.391Z,13.13
2019-02-14T16:04:17.850Z,13.03
2019-02-14T16:07:09.229Z,12.00
2019-02-14T16:09:41.217Z,12.20
2019-02-14T16:12:11.777Z,13.10
2019-02-14T16:14:42.838Z,13.10
2019-02-14T16:17:14.228Z,12.58
2019-02-14T16:19:44.596Z,13.00
2019-02-14T16:22:15.834Z,12.90
2019-02-14T16:24:47.060Z,12.28
2019-02-14T16:27:17.427Z,13.75
2019-02-14T16:29:49.259Z,14.53
2019-02-14T16:32:19.879Z,14.45
2019-02-14T16:34:50.268Z,13.85
2019-02-14T16:37:20.627Z,14.98
2019-02-14T16:39:53.700Z,12.55
2019-02-14T16:42:23.335Z,12.78
2019-02-14T16:44:53.728Z,13.58
2019-02-14T16:47:24.092Z,13.70
2019-02-14T16:49:54.487Z,12.88
2019-02-14T16:52:24.851Z,13.15
2019-02-14T16:54:55.235Z,12.85
2019-02-14T16:57:25.602Z,13.15
2019-02-14T16:59:56.031Z,12.68
2019-02-14T17:02:26.438Z,12.78
2019-02-14T17:05:09.056Z,12.68
2019-02-14T17:07:39.391Z,11.63
2019-02-14T17:10:11.714Z,12.20
2019-02-14T17:12:42.075Z,12.58
2019-02-14T17:15:12.465Z,11.88
2019-02-14T17:17:42.823Z,12.70
2019-02-14T17:20:13.214Z,12.43
2019-02-14T17:22:43.600Z,11.50
2019-02-14T17:25:13.965Z,13.03
2019-02-14T17:27:44.346Z,13.28
2019-02-14T17:30:14.731Z,12.37
2019-02-14T17:32:45.117Z,12.75
2019-02-14T17:35:15.487Z,14.40
2019-02-14T17:37:45.874Z,12.25
2019-02-14T17:40:16.229Z,11.83
2019-02-14T17:42:46.627Z,11.97
2019-02-14T17:45:16.994Z,12.73
2019-02-14T17:47:47.423Z,12.25
2019-02-14T17:50:17.788Z,12.90
2019-02-14T17:52:48.180Z,13.03
2019-02-14T17:55:18.547Z,12.90
2019-02-14T17:57:48.924Z,12.60
2019-02-14T18:00:19.333Z,12.28
2019-02-14T18:02:49.681Z,13.72
2019-02-14T18:05:20.041Z,13.20
2019-02-14T18:07:50.435Z,12.55
2019-02-14T18:10:20.791Z,11.90
2019-02-14T18:12:51.191Z,12.68
2019-02-14T18:15:21.613Z,13.22
2019-02-14T18:17:51.946Z,13.48
2019-02-14T18:20:22.310Z,12.70
2019-02-14T18:22:52.695Z,12.73
2019-02-14T18:25:23.095Z,13.22
2019-02-14T18:27:54.307Z,12.47
2019-02-14T18:30:24.663Z,13.83
2019-02-14T18:32:55.044Z,13.05
2019-02-14T18:35:25.474Z,14.13
2019-02-14T18:37:55.859Z,14.65
2019-02-14T18:40:26.219Z,14.78
2019-02-14T18:42:56.615Z,13.58
2019-02-14T18:45:27.107Z,14.75
2019-02-14T18:47:57.495Z,14.03
2019-02-14T18:50:27.873Z,13.62
2019-02-14T18:52:58.268Z,14.55
2019-02-14T18:55:28.858Z,13.80
2019-02-14T18:57:59.282Z,13.15
2019-02-14T19:00:29.917Z,13.60
2019-02-14T19:03:00.310Z,13.55
2019-02-14T19:05:30.670Z,14.33
2019-02-14T19:08:01.088Z,14.30
2019-02-14T19:10:31.496Z,14.50
2019-02-14T19:13:01.901Z,15.23
2019-02-14T19:15:32.271Z,17.75
2019-02-14T19:18:02.657Z,16.95
2019-02-14T19:20:33.087Z,15.83
2019-02-14T19:23:03.521Z,16.35
2019-02-14T19:25:33.884Z,16.17
2019-02-14T19:28:04.275Z,15.85
2019-02-14T19:30:34.634Z,15.98
2019-02-14T19:33:05.089Z,15.65
2019-02-14T19:35:35.410Z,15.72
2019-02-14T19:38:05.848Z,15.43
2019-02-14T19:40:36.177Z,15.53
2019-02-14T19:43:06.575Z,16.10
2019-02-14T19:45:37.010Z,16.73
2019-02-14T19:48:07.408Z,17.77
2019-02-14T19:50:37.783Z,17.32
2019-02-14T19:53:08.163Z,17.52
2019-02-14T19:55:38.515Z,17.12
2019-02-14T19:58:08.912Z,17.07
2019-02-14T20:00:39.281Z,18.35
2019-02-14T20:03:09.707Z,19.40
2019-02-14T20:05:40.071Z,24.82
2019-02-14T20:08:10.457Z,21.20
2019-02-14T20:10:40.825Z,18.05
2019-02-14T20:13:11.216Z,16.75
2019-02-14T20:15:42.151Z,16.95
2019-02-14T20:18:12.715Z,17.30
2019-02-14T20:20:43.064Z,17.50
2019-02-14T20:23:13.454Z,16.95
2019-02-14T20:25:43.814Z,19.65
2019-02-14T20:28:14.249Z,20.37
2019-02-14T20:30:44.601Z,21.80
2019-02-14T20:33:15.002Z,20.65
2019-02-14T20:35:45.368Z,17.30
2019-02-14T20:38:15.895Z,17.45
2019-02-14T20:40:46.242Z,17.20
2019-02-14T20:43:16.629Z,17.12
2019-02-14T20:45:47.032Z,17.35
2019-02-14T20:48:17.432Z,17.75
2019-02-14T20:50:48.813Z,17.32
2019-02-14T20:53:19.153Z,17.30
2019-02-14T20:55:49.532Z,17.45
2019-02-14T20:58:19.895Z,16.62
2019-02-14T21:00:50.279Z,16.32
2019-02-14T21:03:32.742Z,16.77
2019-02-14T21:06:03.136Z,16.25
2019-02-14T21:08:33.504Z,15.80
2019-02-14T21:11:03.969Z,17.20
2019-02-14T21:13:34.350Z,17.80
2019-02-14T21:16:04.726Z,16.27
2019-02-14T21:18:35.117Z,15.70
2019-02-14T21:21:05.489Z,15.75
2019-02-14T21:23:35.857Z,15.83
2019-02-14T21:26:06.243Z,15.58
2019-02-14T21:28:36.620Z,16.45
2019-02-14T21:31:07.010Z,16.07
2019-02-14T21:33:37.394Z,16.82
2019-02-14T21:36:07.750Z,18.48
2019-02-14T21:38:38.115Z,17.87
2019-02-14T21:41:08.522Z,17.62
2019-02-14T21:43:38.912Z,18.23
2019-02-14T21:46:09.327Z,18.75
2019-02-14T21:48:39.682Z,18.12
2019-02-14T21:51:10.080Z,18.50
2019-02-14T21:53:40.446Z,17.48
2019-02-14T21:56:10.822Z,17.55
2019-02-14T21:58:41.205Z,17.92
2019-02-14T22:01:12.179Z,17.55
2019-02-14T22:03:42.669Z,17.02
2019-02-14T22:06:13.229Z,18.45
2019-02-14T22:08:44.167Z,16.93
2019-02-14T22:11:14.687Z,17.20
2019-02-14T22:13:45.159Z,18.77
2019-02-14T22:16:15.671Z,18.23
2019-02-14T22:18:46.269Z,17.15
2019-02-14T22:21:16.736Z,16.55
2019-02-14T22:23:47.335Z,16.32
2019-02-14T22:26:17.725Z,17.77
2019-02-14T22:28:48.176Z,18.65
2019-02-14T22:31:18.578Z,18.30
2019-02-14T22:33:49.029Z,17.00
2019-02-14T22:36:19.501Z,18.05
2019-02-14T22:38:49.966Z,17.62
2019-02-14T22:41:20.437Z,18.95
2019-02-14T22:43:50.802Z,17.62
2019-02-14T22:46:21.182Z,18.15
2019-02-14T22:48:52.513Z,17.25
2019-02-14T22:51:23.565Z,15.85
2019-02-14T22:53:54.081Z,16.15
2019-02-14T22:56:24.999Z,16.95
2019-02-14T22:58:55.649Z,16.17
2019-02-14T23:01:26.878Z,16.07
2019-02-14T23:03:57.860Z,18.17
2019-02-14T23:06:30.301Z,17.57
2019-02-14T23:09:01.261Z,16.60
2019-02-14T23:11:33.836Z,15.75
2019-02-14T23:14:04.208Z,16.00
2019-02-14T23:16:35.884Z,16.05
2019-02-14T23:19:06.756Z,14.47
2019-02-14T23:21:37.508Z,17.57
2019-02-14T23:24:08.318Z,16.07
2019-02-14T23:26:39.259Z,15.93
2019-02-14T23:29:10.698Z,16.12
2019-02-14T23:31:41.362Z,15.63
2019-02-14T23:34:11.858Z,17.90
2019-02-14T23:36:42.241Z,16.30
2019-02-14T23:39:12.611Z,16.85
2019-02-14T23:41:43.003Z,16.93
2019-02-14T23:44:13.370Z,16.50
2019-02-14T23:46:43.760Z,16.40
2019-02-14T23:49:14.120Z,16.05
2019-02-14T23:51:44.510Z,15.63
2019-02-14T23:54:14.872Z,16.93
2019-02-14T23:56:46.223Z,16.05
2019-02-14T23:59:16.592Z,16.27
